createdAt,value
2018-08-19T00:00:04.034Z,65.78
2018-08-19T00:02:36.756Z,67.05
2018-08-19T00:05:14.337Z,68.21
2018-08-19T00:07:44.741Z,67.66
2018-08-19T00:10:15.396Z,68.22
2018-08-19T00:12:49.276Z,68.29
2018-08-19T00:15:19.716Z,68.47
2018-08-19T00:17:52.756Z,68.41
2018-08-19T00:20:23.036Z,67.89
2018-08-19T00:22:56.697Z,68.25
2018-08-19T00:25:33.495Z,68.44
2018-08-19T00:28:08.143Z,68.22
2018-08-19T00:30:39.543Z,68.46
2018-08-19T00:33:11.874Z,68.83
2018-08-19T00:35:45.086Z,68.94
2018-08-19T00:38:16.863Z,69.37
2018-08-19T00:40:46.399Z,69.47
2018-08-19T00:43:18.353Z,69.49
2018-08-19T00:45:49.522Z,70.51
2018-08-19T00:48:21.469Z,70.14
2018-08-19T00:50:51.266Z,70.27
2018-08-19T00:53:21.011Z,70.31
2018-08-19T00:55:50.905Z,70.95
2018-08-19T00:58:22.761Z,71.18
2018-08-19T01:00:52.829Z,71.00
2018-08-19T01:03:24.530Z,70.44
2018-08-19T01:05:55.272Z,69.81
2018-08-19T01:08:25.390Z,70.17
2018-08-19T01:10:56.783Z,69.44
2018-08-19T01:13:26.965Z,69.29
2018-08-19T01:15:57.221Z,67.76
2018-08-19T01:18:28.116Z,67.20
2018-08-19T01:21:11.079Z,65.56
2018-08-19T01:23:41.809Z,65.42
2018-08-19T01:26:12.771Z,64.69
2018-08-19T01:28:44.907Z,64.28
2018-08-19T01:31:16.275Z,64.74
2018-08-19T01:33:46.615Z,63.61
2018-08-19T01:36:16.709Z,63.25
2018-08-19T01:38:46.506Z,63.59
2018-08-19T01:41:16.560Z,62.89
2018-08-19T01:43:58.565Z,63.28
2018-08-19T01:46:28.518Z,62.53
2018-08-19T01:48:59.079Z,62.18
2018-08-19T01:51:29.046Z,61.98
2018-08-19T01:54:00.431Z,63.07
2018-08-19T01:56:30.815Z,61.80
2018-08-19T01:59:00.494Z,61.36
2018-08-19T02:01:43.071Z,61.40
2018-08-19T02:04:13.125Z,60.54
2018-08-19T02:06:44.436Z,60.47
2018-08-19T02:09:16.029Z,60.38
2018-08-19T02:11:47.938Z,61.00
2018-08-19T02:14:19.922Z,59.99
2018-08-19T02:16:51.403Z,61.74
2018-08-19T02:19:21.528Z,62.08
2018-08-19T02:21:52.192Z,61.25
2018-08-19T02:24:22.024Z,61.76
2018-08-19T02:26:53.011Z,62.33
2018-08-19T02:29:37.091Z,61.31
2018-08-19T02:32:09.192Z,61.44
2018-08-19T02:34:41.772Z,62.03
2018-08-19T02:37:17.874Z,62.23
2018-08-19T02:39:50.205Z,62.26
2018-08-19T02:42:27.144Z,62.00
2018-08-19T02:45:02.958Z,61.70
2018-08-19T02:47:33.793Z,61.20
2018-08-19T02:50:04.682Z,61.97
2018-08-19T02:52:37.646Z,61.95
2018-08-19T02:55:09.172Z,60.78
2018-08-19T02:57:42.537Z,61.00
2018-08-19T03:00:13.434Z,61.84
2018-08-19T03:02:44.154Z,62.15
2018-08-19T03:05:15.420Z,61.93
2018-08-19T03:07:45.747Z,61.99
2018-08-19T03:10:16.779Z,61.84
2018-08-19T03:12:47.329Z,62.43
2018-08-19T03:15:17.627Z,63.32
2018-08-19T03:17:49.612Z,62.48
2018-08-19T03:20:21.622Z,63.10
2018-08-19T03:22:52.578Z,63.53
2018-08-19T03:25:23.228Z,64.37
2018-08-19T03:27:52.831Z,63.45
2018-08-19T03:30:22.546Z,64.47
2018-08-19T03:32:57.427Z,64.49
2018-08-19T03:35:28.713Z,64.41
2018-08-19T03:38:02.179Z,63.87
2018-08-19T03:40:32.352Z,64.14
2018-08-19T03:43:02.938Z,64.19
2018-08-19T03:45:33.226Z,64.88
2018-08-19T03:48:03.160Z,64.98
2018-08-19T03:50:36.027Z,65.86
2018-08-19T03:53:05.990Z,66.60
2018-08-19T03:55:38.115Z,66.25
2018-08-19T03:58:09.174Z,66.85
2018-08-19T04:00:41.342Z,67.66
2018-08-19T04:03:19.134Z,67.84
2018-08-19T04:05:54.095Z,68.18
2018-08-19T04:08:27.362Z,67.96
2018-08-19T04:10:57.055Z,67.67
2018-08-19T04:13:29.246Z,67.40
2018-08-19T04:16:00.598Z,67.41
2018-08-19T04:18:35.298Z,67.54
2018-08-19T04:21:08.764Z,67.87
2018-08-19T04:23:41.480Z,68.03
2018-08-19T04:26:11.925Z,67.94
2018-08-19T04:28:44.348Z,68.12
2018-08-19T04:31:19.278Z,68.98
2018-08-19T04:33:49.702Z,68.91
2018-08-19T04:36:20.939Z,69.35
2018-08-19T04:38:50.696Z,69.77
2018-08-19T04:41:21.434Z,69.04
2018-08-19T04:43:51.467Z,69.17
2018-08-19T04:46:21.388Z,69.73
2018-08-19T04:48:51.603Z,69.55
2018-08-19T04:51:21.998Z,69.32
2018-08-19T04:53:52.165Z,69.48
2018-08-19T04:56:22.650Z,68.68
2018-08-19T04:58:55.497Z,69.03
2018-08-19T05:01:25.625Z,69.12
2018-08-19T05:03:55.978Z,69.05
2018-08-19T05:06:26.557Z,68.70
2018-08-19T05:08:56.254Z,67.61
2018-08-19T05:11:28.259Z,67.43
2018-08-19T05:14:02.050Z,67.30
2018-08-19T05:16:32.672Z,67.44
2018-08-19T05:19:05.389Z,66.91
2018-08-19T05:30:45.976Z,67.16
2018-08-19T05:33:15.645Z,66.09
2018-08-19T05:35:46.225Z,65.53
2018-08-19T05:38:17.275Z,65.48
2018-08-19T05:40:52.200Z,65.17
2018-08-19T05:43:23.136Z,64.99
2018-08-19T05:46:00.407Z,64.00
2018-08-19T05:48:30.989Z,64.18
2018-08-19T05:51:01.201Z,64.77
2018-08-19T05:53:32.451Z,64.23
2018-08-19T05:56:02.249Z,63.79
2018-08-19T05:58:32.167Z,63.67
2018-08-19T06:01:01.961Z,64.27
2018-08-19T06:03:32.091Z,63.11
2018-08-19T06:06:02.488Z,63.61
2018-08-19T06:08:31.928Z,63.52
2018-08-19T06:11:01.818Z,62.60
2018-08-19T06:13:32.418Z,62.30
2018-08-19T06:16:02.432Z,61.19
2018-08-19T06:18:32.328Z,60.70
2018-08-19T06:21:02.282Z,59.57
2018-08-19T06:23:32.445Z,59.45
2018-08-19T06:26:03.056Z,59.90
2018-08-19T06:28:33.358Z,58.91
2018-08-19T06:31:03.772Z,58.13
2018-08-19T06:33:34.001Z,57.35
2018-08-19T06:36:03.591Z,56.66
2018-08-19T06:38:33.247Z,56.15
2018-08-19T06:41:04.383Z,55.85
2018-08-19T06:43:34.243Z,54.54
2018-08-19T06:46:04.606Z,53.63
2018-08-19T06:48:35.758Z,53.31
2018-08-19T06:51:07.819Z,50.89
2018-08-19T06:53:39.276Z,51.05
2018-08-19T06:56:10.685Z,50.20
2018-08-19T06:58:42.537Z,50.17
2018-08-19T07:01:16.717Z,49.14
2018-08-19T07:03:53.349Z,49.09
2018-08-19T07:06:24.992Z,49.02
2018-08-19T07:08:58.175Z,49.25
2018-08-19T07:11:28.766Z,48.09
2018-08-19T07:13:59.733Z,48.37
2018-08-19T07:16:35.515Z,48.69
2018-08-19T07:19:13.446Z,47.84
2018-08-19T07:21:57.889Z,47.99
2018-08-19T07:24:31.961Z,48.44
2018-08-19T07:27:05.088Z,48.35
2018-08-19T07:29:38.152Z,49.38
2018-08-19T07:32:11.423Z,48.06
2018-08-19T07:34:43.779Z,47.29
2018-08-19T07:37:15.355Z,46.46
2018-08-19T07:39:50.758Z,45.55
2018-08-19T07:42:21.150Z,46.27
2018-08-19T07:44:51.167Z,45.86
2018-08-19T07:47:22.356Z,45.60
2018-08-19T07:54:59.662Z,43.51
2018-08-19T07:57:39.141Z,42.97
2018-08-19T08:00:12.795Z,43.33
2018-08-19T08:03:04.974Z,42.32
2018-08-19T08:05:43.016Z,42.22
2018-08-19T08:08:15.581Z,42.42
2018-08-19T08:10:46.736Z,42.51
2018-08-19T08:13:17.592Z,41.16
2018-08-19T08:15:56.064Z,41.02
2018-08-19T08:18:27.291Z,41.60
2018-08-19T08:21:03.032Z,40.57
2018-08-19T08:23:33.054Z,41.79
2018-08-19T08:26:03.399Z,41.41
2018-08-19T08:28:33.831Z,40.57
2018-08-19T08:31:08.632Z,40.54
2018-08-19T08:33:41.738Z,40.38
2018-08-19T08:36:11.881Z,40.20
2018-08-19T08:38:42.510Z,39.96
2018-08-19T08:41:12.230Z,40.83
2018-08-19T08:43:42.083Z,40.65
2018-08-19T08:46:12.739Z,39.98
2018-08-19T08:48:44.060Z,40.73
2018-08-19T08:51:14.162Z,40.63
2018-08-19T08:53:46.528Z,39.65
2018-08-19T08:56:16.684Z,40.19
2018-08-19T08:58:48.607Z,39.92
2018-08-19T09:01:19.630Z,39.39
2018-08-19T09:03:51.047Z,39.97
2018-08-19T09:06:25.729Z,39.41
2018-08-19T09:08:56.415Z,39.07
2018-08-19T09:11:27.305Z,39.40
2018-08-19T09:13:58.519Z,39.87
2018-08-19T09:16:28.082Z,39.79
2018-08-19T09:18:57.771Z,38.71
2018-08-19T09:21:31.415Z,38.79
2018-08-19T09:24:03.041Z,38.68
2018-08-19T09:26:34.143Z,38.70
2018-08-19T09:29:04.579Z,38.72
2018-08-19T09:31:38.342Z,39.41
2018-08-19T09:34:10.134Z,38.31
2018-08-19T09:36:41.727Z,39.35
2018-08-19T09:39:15.220Z,38.77
2018-08-19T09:41:47.278Z,38.37
2018-08-19T09:44:16.884Z,39.00
2018-08-19T09:46:48.760Z,38.21
2018-08-19T09:49:18.618Z,37.81
2018-08-19T09:51:49.237Z,36.61
2018-08-19T09:54:25.192Z,36.02
2018-08-19T09:56:55.977Z,35.34
2018-08-19T09:59:27.347Z,35.46
2018-08-19T10:01:58.440Z,35.36
2018-08-19T10:04:31.417Z,34.83
2018-08-19T10:07:12.394Z,34.89
2018-08-19T10:09:44.396Z,33.84
2018-08-19T10:12:16.780Z,35.05
2018-08-19T10:14:46.340Z,34.90
2018-08-19T10:17:18.558Z,34.43
2018-08-19T10:19:54.288Z,34.23
2018-08-19T10:22:29.851Z,33.90
2018-08-19T10:25:00.941Z,32.98
2018-08-19T10:27:32.198Z,33.96
2018-08-19T10:30:02.643Z,32.95
2018-08-19T10:32:33.006Z,33.30
2018-08-19T10:35:08.487Z,33.72
2018-08-19T10:37:40.626Z,33.13
2018-08-19T10:40:12.369Z,33.76
2018-08-19T10:42:43.173Z,33.37
2018-08-19T10:45:25.186Z,32.24
2018-08-19T10:47:57.427Z,32.27
2018-08-19T10:50:31.905Z,31.47
2018-08-19T10:53:06.651Z,31.08
2018-08-19T10:55:38.720Z,31.00
2018-08-19T10:58:14.073Z,31.06
2018-08-19T11:00:50.231Z,30.48
2018-08-19T11:03:25.753Z,30.59
2018-08-19T11:05:58.366Z,29.58
2018-08-19T11:08:28.400Z,30.50
2018-08-19T11:11:02.041Z,30.50
2018-08-19T11:13:34.331Z,30.70
2018-08-19T11:16:08.832Z,31.22
2018-08-19T11:18:42.953Z,30.21
2018-08-19T11:21:21.341Z,30.25
2018-08-19T11:23:51.170Z,30.79
2018-08-19T11:26:22.411Z,30.07
2018-08-19T11:28:59.134Z,30.29
2018-08-19T11:31:34.540Z,29.98
2018-08-19T11:34:08.009Z,30.26
2018-08-19T11:36:43.927Z,29.39
2018-08-19T11:39:17.536Z,30.06
2018-08-19T11:41:50.017Z,29.18
2018-08-19T11:44:21.678Z,29.51
2018-08-19T11:46:55.658Z,29.79
2018-08-19T11:49:29.237Z,29.01
2018-08-19T11:52:03.137Z,29.14
2018-08-19T11:54:37.008Z,28.75
2018-08-19T11:57:10.384Z,29.81
2018-08-19T11:59:47.972Z,29.31
2018-08-19T12:02:22.413Z,29.39
2018-08-19T12:04:52.911Z,28.43
2018-08-19T12:07:24.930Z,29.28
2018-08-19T12:10:00.682Z,28.12
2018-08-19T12:12:49.686Z,28.47
2018-08-19T12:15:21.803Z,28.33
2018-08-19T12:17:53.864Z,28.77
2018-08-19T12:20:39.416Z,28.90
2018-08-19T12:23:11.306Z,28.16
2018-08-19T12:25:41.620Z,27.86
2018-08-19T12:28:14.189Z,27.64
2018-08-19T12:30:45.549Z,27.96
2018-08-19T12:33:23.608Z,27.90
2018-08-19T12:35:57.661Z,27.63
2018-08-19T12:38:28.998Z,27.90
2018-08-19T12:41:02.491Z,27.34
2018-08-19T12:43:32.956Z,27.39
2018-08-19T12:46:05.653Z,27.30
2018-08-19T12:48:36.092Z,27.54
2018-08-19T12:51:06.743Z,26.96
2018-08-19T12:53:37.817Z,26.39
2018-08-19T12:56:09.979Z,27.46
2018-08-19T12:58:39.951Z,26.85
2018-08-19T13:01:11.098Z,26.85
2018-08-19T13:03:41.251Z,27.43
2018-08-19T13:06:11.597Z,26.00
2018-08-19T13:08:42.432Z,26.26
2018-08-19T13:11:12.419Z,25.61
2018-08-19T13:13:42.745Z,26.24
2018-08-19T13:16:18.068Z,26.09
2018-08-19T13:18:49.034Z,25.06
2018-08-19T13:21:19.626Z,25.81
2018-08-19T13:23:52.314Z,26.16
2018-08-19T13:26:22.092Z,25.28
2018-08-19T13:28:55.512Z,25.70
2018-08-19T13:31:30.725Z,25.53
2018-08-19T13:34:00.598Z,25.55
2018-08-19T13:36:31.644Z,24.43
2018-08-19T13:39:01.723Z,24.76
2018-08-19T13:41:32.053Z,24.62
2018-08-19T13:44:02.561Z,24.71
2018-08-19T13:46:32.152Z,25.64
2018-08-19T13:49:01.975Z,24.97
2018-08-19T13:51:32.526Z,24.76
2018-08-19T13:54:02.666Z,24.15
2018-08-19T13:56:33.596Z,24.61
2018-08-19T13:59:04.927Z,24.65
2018-08-19T14:01:36.368Z,24.85
2018-08-19T14:04:07.414Z,25.26
2018-08-19T14:06:37.332Z,24.38
2018-08-19T14:09:11.663Z,24.70
2018-08-19T14:11:44.755Z,25.06
2018-08-19T14:14:16.596Z,24.94
2018-08-19T14:16:47.700Z,24.12
2018-08-19T14:19:18.456Z,24.31
2018-08-19T14:21:48.305Z,24.38
2018-08-19T14:24:17.810Z,24.22
2018-08-19T14:26:48.519Z,24.46
2018-08-19T14:29:18.791Z,24.67
2018-08-19T14:31:57.892Z,24.80
2018-08-19T14:34:27.556Z,23.65
2018-08-19T14:36:57.877Z,24.22
2018-08-19T14:39:29.163Z,24.22
2018-08-19T14:42:00.800Z,24.70
2018-08-19T14:44:32.685Z,24.33
2018-08-19T14:47:03.304Z,23.94
2018-08-19T14:49:34.229Z,23.56
2018-08-19T14:52:09.072Z,23.27
2018-08-19T14:54:41.159Z,24.38
2018-08-19T14:57:12.754Z,24.61
2018-08-19T14:59:43.404Z,24.10
2018-08-19T15:02:14.472Z,24.35
2018-08-19T15:04:45.856Z,24.32
2018-08-19T15:07:15.678Z,23.50
2018-08-19T15:09:49.771Z,24.49
2018-08-19T15:12:23.945Z,23.49
2018-08-19T15:14:57.414Z,23.98
2018-08-19T15:17:27.744Z,24.01
2018-08-19T15:20:01.265Z,23.89
2018-08-19T15:22:33.492Z,24.19
2018-08-19T15:25:05.138Z,23.35
2018-08-19T15:27:40.795Z,23.56
2018-08-19T15:30:16.357Z,23.57
2018-08-19T15:32:48.200Z,23.48
2018-08-19T15:35:19.249Z,23.03
2018-08-19T15:37:57.114Z,23.78
2018-08-19T15:40:51.362Z,23.09
2018-08-19T15:43:21.624Z,22.94
2018-08-19T15:45:54.104Z,22.69
2018-08-19T15:48:24.905Z,23.74
2018-08-19T15:50:59.660Z,23.15
2018-08-19T15:53:29.925Z,23.59
2018-08-19T15:55:59.888Z,23.40
2018-08-19T15:58:30.478Z,22.85
2018-08-19T16:01:06.708Z,23.21
2018-08-19T16:03:37.984Z,23.74
2018-08-19T16:06:07.999Z,23.80
2018-08-19T16:08:39.350Z,23.58
2018-08-19T16:11:09.730Z,23.12
2018-08-19T16:13:42.620Z,23.32
2018-08-19T16:16:18.180Z,22.96
2018-08-19T16:18:50.062Z,23.83
2018-08-19T16:21:20.607Z,24.37
2018-08-19T16:23:50.684Z,23.72
2018-08-19T16:26:20.245Z,24.13
2018-08-19T16:28:50.435Z,23.41
2018-08-19T16:31:21.515Z,23.59
2018-08-19T16:33:54.094Z,23.82
2018-08-19T16:36:23.728Z,23.71
2018-08-19T16:38:54.102Z,24.50
2018-08-19T16:41:24.046Z,24.98
2018-08-19T16:43:54.125Z,24.46
2018-08-19T16:46:24.152Z,25.00
2018-08-19T16:48:53.890Z,24.36
2018-08-19T16:51:23.443Z,24.50
2018-08-19T16:53:53.164Z,24.49
2018-08-19T16:56:24.175Z,25.13
2018-08-19T16:58:54.015Z,25.09
2018-08-19T17:01:24.824Z,25.59
2018-08-19T17:03:55.439Z,26.73
2018-08-19T17:06:28.646Z,26.78
2018-08-19T17:08:59.873Z,25.91
2018-08-19T17:11:29.662Z,27.17
2018-08-19T17:14:00.723Z,27.37
2018-08-19T17:16:31.809Z,26.91
2018-08-19T17:19:04.403Z,27.55
2018-08-19T17:21:34.958Z,27.48
2018-08-19T17:24:07.093Z,27.70
2018-08-19T17:26:41.296Z,27.48
2018-08-19T17:29:16.645Z,28.34
2018-08-19T17:31:48.041Z,27.38
2018-08-19T17:34:20.464Z,28.09
2018-08-19T17:36:50.186Z,27.48
2018-08-19T17:39:22.522Z,28.90
2018-08-19T17:41:57.161Z,28.97
2018-08-19T17:44:26.873Z,28.75
2018-08-19T17:46:57.736Z,28.08
2018-08-19T17:49:28.597Z,28.73
2018-08-19T17:51:59.573Z,29.11
2018-08-19T17:54:31.575Z,29.14
2018-08-19T17:57:04.197Z,29.22
2018-08-19T17:59:33.988Z,28.68
2018-08-19T18:02:03.599Z,29.03
2018-08-19T18:05:05.525Z,28.64
2018-08-19T18:07:36.695Z,29.54
2018-08-19T18:10:11.238Z,29.02
2018-08-19T18:12:41.724Z,29.30
2018-08-19T18:15:14.393Z,29.73
2018-08-19T18:17:53.110Z,29.25
2018-08-19T18:20:27.720Z,29.76
2018-08-19T18:22:59.028Z,29.92
2018-08-19T18:25:28.710Z,30.07
2018-08-19T18:28:01.419Z,29.19
2018-08-19T18:30:39.538Z,30.08
2018-08-19T18:33:12.023Z,29.95
2018-08-19T18:35:44.316Z,30.08
2018-08-19T18:38:26.851Z,29.30
2018-08-19T18:40:58.216Z,30.00
2018-08-19T18:43:29.014Z,30.05
2018-08-19T18:45:58.870Z,30.32
2018-08-19T18:48:28.677Z,29.47
2018-08-19T18:51:00.525Z,29.70
2018-08-19T18:53:30.551Z,30.60
2018-08-19T18:56:03.202Z,30.72
2018-08-19T18:58:34.939Z,30.82
2018-08-19T19:01:07.390Z,30.79
2018-08-19T19:03:40.037Z,30.27
2018-08-19T19:06:14.761Z,30.21
2018-08-19T19:08:46.351Z,30.22
2018-08-19T19:11:24.963Z,31.18
2018-08-19T19:13:55.759Z,30.68
2018-08-19T19:16:39.858Z,30.47
2018-08-19T19:19:11.116Z,30.87
2018-08-19T19:21:49.779Z,30.86
2018-08-19T19:24:34.517Z,31.76
2018-08-19T19:29:54.147Z,31.34
2018-08-19T19:32:43.128Z,31.99
2018-08-19T19:35:23.327Z,31.55
2018-08-19T19:37:56.343Z,31.58
2018-08-19T19:40:28.653Z,32.75
2018-08-19T19:43:04.783Z,32.43
2018-08-19T19:45:55.666Z,32.44
2018-08-19T19:48:31.813Z,32.45
2018-08-19T19:51:04.029Z,33.33
2018-08-19T19:53:37.671Z,32.95
2018-08-19T19:56:22.020Z,33.14
2018-08-19T19:58:55.446Z,32.96
2018-08-19T20:01:35.963Z,33.87
2018-08-19T20:04:10.447Z,33.53
2018-08-19T20:06:44.936Z,34.35
2018-08-19T20:09:18.381Z,33.79
2018-08-19T20:11:53.386Z,33.85
2018-08-19T20:14:27.312Z,34.81
2018-08-19T20:16:58.896Z,34.85
2018-08-19T20:19:42.365Z,34.38
2018-08-19T20:22:17.656Z,34.20
2018-08-19T20:24:48.485Z,35.16
2018-08-19T20:27:21.078Z,35.09
2018-08-19T20:29:59.427Z,35.21
2018-08-19T20:32:35.302Z,34.38
2018-08-19T20:35:12.610Z,34.71
2018-08-19T20:37:43.552Z,34.55
2018-08-19T20:40:13.749Z,35.65
2018-08-19T20:42:44.773Z,34.96
2018-08-19T20:45:15.177Z,35.89
2018-08-19T20:47:45.480Z,35.57
2018-08-19T20:50:16.752Z,35.24
2018-08-19T20:52:49.334Z,35.46
2018-08-19T20:55:24.132Z,36.46
2018-08-19T20:57:59.383Z,35.88
2018-08-19T21:00:31.123Z,37.23
2018-08-19T21:03:01.600Z,37.04
2018-08-19T21:05:33.609Z,36.88
2018-08-19T21:08:11.176Z,37.89
2018-08-19T21:10:43.777Z,37.80
2018-08-19T21:13:15.330Z,37.90
2018-08-19T21:15:47.277Z,38.17
2018-08-19T21:18:17.128Z,38.05
2018-08-19T21:20:47.140Z,38.28
2018-08-19T21:23:17.241Z,39.31
2018-08-19T21:25:52.195Z,38.98
2018-08-19T21:28:22.028Z,39.23
2018-08-19T21:30:52.210Z,39.59
2018-08-19T21:33:22.418Z,40.28
2018-08-19T21:35:53.788Z,40.51
2018-08-19T21:38:24.405Z,40.66
2018-08-19T21:40:57.168Z,40.43
2018-08-19T21:43:29.637Z,40.70
2018-08-19T21:46:04.401Z,40.41
2018-08-19T21:48:34.513Z,41.07
2018-08-19T21:51:04.931Z,40.63
2018-08-19T21:53:34.465Z,41.44
2018-08-19T21:56:04.549Z,40.98
2018-08-19T21:58:34.743Z,41.18
2018-08-19T22:01:09.649Z,42.00
2018-08-19T22:03:46.071Z,42.24
2018-08-19T22:06:16.972Z,41.79
2018-08-19T22:08:55.764Z,41.93
2018-08-19T22:11:27.797Z,42.89
2018-08-19T22:13:59.140Z,42.55
2018-08-19T22:16:29.372Z,42.69
2018-08-19T22:18:59.737Z,42.33
2018-08-19T22:21:30.079Z,42.85
2018-08-19T22:24:01.131Z,42.68
2018-08-19T22:26:31.082Z,42.56
2018-08-19T22:29:13.783Z,43.43
2018-08-19T22:31:43.298Z,43.91
2018-08-19T22:34:13.511Z,43.59
2018-08-19T22:36:43.628Z,42.75
2018-08-19T22:39:18.615Z,42.78
2018-08-19T22:41:51.234Z,43.12
2018-08-19T22:44:20.839Z,42.45
2018-08-19T22:46:50.296Z,43.17
2018-08-19T22:49:22.302Z,43.11
2018-08-19T22:51:52.223Z,43.46
2018-08-19T22:54:24.919Z,43.40
2018-08-19T22:56:55.197Z,43.50
2018-08-19T22:59:25.423Z,44.22
2018-08-19T23:01:55.472Z,43.92
2018-08-19T23:04:25.745Z,44.09
2018-08-19T23:06:55.624Z,44.05
2018-08-19T23:09:25.145Z,44.35
2018-08-19T23:11:55.879Z,45.07
2018-08-19T23:14:36.195Z,44.64
2018-08-19T23:17:09.044Z,45.43
2018-08-19T23:19:38.654Z,45.10
2018-08-19T23:22:08.508Z,45.20
2018-08-19T23:24:40.045Z,46.06
2018-08-19T23:27:11.327Z,45.86
2018-08-19T23:29:40.775Z,46.04
2018-08-19T23:32:10.204Z,46.13
2018-08-19T23:34:40.434Z,45.73
2018-08-19T23:37:10.284Z,46.00
2018-08-19T23:39:40.143Z,45.84
2018-08-19T23:42:09.765Z,46.27
2018-08-19T23:44:40.327Z,45.72
2018-08-19T23:47:10.360Z,46.30
2018-08-19T23:49:40.021Z,45.62
2018-08-19T23:52:09.775Z,45.47
2018-08-19T23:54:39.926Z,46.05
2018-08-19T23:57:10.362Z,46.16
2018-08-19T23:59:40.158Z,46.08
